sensor_id;sensor_type;location;lat;lon;timestamp;P1;durP1;ratioP1;P2;durP2;ratioP2
7539;SDS011;3811;49.006;12.076;2022-07-23T00:00:20;12.63;;;11.43;;
7539;SDS011;3811;49.006;12.076;2022-07-23T00:02:48;13.17;;;11.70;;
7539;SDS011;3811;49.006;12.076;2022-07-23T00:05:15;13.07;;;10.90;;
7539;SDS011;3811;49.006;12.076;2022-07-23T00:07:42;12.87;;;11.37;;
7539;SDS011;3811;49.006;12.076;2022-07-23T00:10:09;13.27;;;11.80;;
7539;SDS011;3811;49.006;12.076;2022-07-23T00:12:37;12.97;;;11.77;;
7539;SDS011;3811;49.006;12.076;2022-07-23T00:15:06;12.43;;;11.10;;
7539;SDS011;3811;49.006;12.076;2022-07-23T00:17:33;12.50;;;11.30;;
7539;SDS011;3811;49.006;12.076;2022-07-23T00:20:02;12.40;;;11.23;;
7539;SDS011;3811;49.006;12.076;2022-07-23T00:22:30;11.83;;;10.63;;
7539;SDS011;3811;49.006;12.076;2022-07-23T00:24:57;11.63;;;10.53;;
7539;SDS011;3811;49.006;12.076;2022-07-23T00:27:24;14.80;;;11.30;;
7539;SDS011;3811;49.006;12.076;2022-07-23T00:29:51;11.13;;;10.20;;
7539;SDS011;3811;49.006;12.076;2022-07-23T00:32:18;11.97;;;10.77;;
7539;SDS011;3811;49.006;12.076;2022-07-23T00:34:45;12.27;;;10.57;;
7539;SDS011;3811;49.006;12.076;2022-07-23T00:37:14;12.27;;;11.17;;
7539;SDS011;3811;49.006;12.076;2022-07-23T00:39:41;11.70;;;10.53;;
7539;SDS011;3811;49.006;12.076;2022-07-23T00:42:08;12.80;;;11.03;;
7539;SDS011;3811;49.006;12.076;2022-07-23T00:44:35;11.63;;;10.43;;
7539;SDS011;3811;49.006;12.076;2022-07-23T00:47:02;11.73;;;10.60;;
7539;SDS011;3811;49.006;12.076;2022-07-23T00:49:30;12.93;;;11.40;;
7539;SDS011;3811;49.006;12.076;2022-07-23T00:51:58;12.87;;;10.97;;
7539;SDS011;3811;49.006;12.076;2022-07-23T00:54:30;12.03;;;10.90;;
7539;SDS011;3811;49.006;12.076;2022-07-23T00:56:57;13.40;;;10.37;;
7539;SDS011;3811;49.006;12.076;2022-07-23T00:59:24;14.07;;;10.47;;
7539;SDS011;3811;49.006;12.076;2022-07-23T01:01:52;11.17;;;10.03;;
7539;SDS011;3811;49.006;12.076;2022-07-23T01:04:19;11.80;;;10.60;;
7539;SDS011;3811;49.006;12.076;2022-07-23T01:06:46;12.87;;;10.50;;
7539;SDS011;3811;49.006;12.076;2022-07-23T01:09:13;13.00;;;10.83;;
7539;SDS011;3811;49.006;12.076;2022-07-23T01:11:42;12.87;;;10.60;;
7539;SDS011;3811;49.006;12.076;2022-07-23T01:14:10;11.70;;;10.50;;
7539;SDS011;3811;49.006;12.076;2022-07-23T01:16:38;12.50;;;10.67;;
7539;SDS011;3811;49.006;12.076;2022-07-23T01:19:06;12.03;;;10.17;;
7539;SDS011;3811;49.006;12.076;2022-07-23T01:21:37;11.23;;;10.13;;
7539;SDS011;3811;49.006;12.076;2022-07-23T01:24:07;10.90;;;9.80;;
7539;SDS011;3811;49.006;12.076;2022-07-23T01:26:38;11.27;;;10.07;;
7539;SDS011;3811;49.006;12.076;2022-07-23T01:29:07;13.57;;;10.87;;
7539;SDS011;3811;49.006;12.076;2022-07-23T01:31:34;11.53;;;10.37;;
7539;SDS011;3811;49.006;12.076;2022-07-23T01:34:02;11.10;;;10.00;;
7539;SDS011;3811;49.006;12.076;2022-07-23T01:36:29;12.13;;;9.90;;
7539;SDS011;3811;49.006;12.076;2022-07-23T01:38:57;12.13;;;10.40;;
7539;SDS011;3811;49.006;12.076;2022-07-23T01:41:25;16.43;;;11.53;;
7539;SDS011;3811;49.006;12.076;2022-07-23T01:43:52;11.63;;;10.53;;
7539;SDS011;3811;49.006;12.076;2022-07-23T01:46:20;12.40;;;10.93;;
7539;SDS011;3811;49.006;12.076;2022-07-23T01:48:49;14.70;;;10.50;;
7539;SDS011;3811;49.006;12.076;2022-07-23T01:51:30;11.83;;;10.67;;
7539;SDS011;3811;49.006;12.076;2022-07-23T01:54:03;14.27;;;11.03;;
7539;SDS011;3811;49.006;12.076;2022-07-23T01:56:32;12.30;;;10.73;;
7539;SDS011;3811;49.006;12.076;2022-07-23T01:58:59;11.50;;;10.30;;
7539;SDS011;3811;49.006;12.076;2022-07-23T02:01:27;11.47;;;10.27;;
7539;SDS011;3811;49.006;12.076;2022-07-23T02:03:55;11.77;;;10.13;;
7539;SDS011;3811;49.006;12.076;2022-07-23T02:06:22;12.27;;;11.03;;
7539;SDS011;3811;49.006;12.076;2022-07-23T02:08:49;11.60;;;10.40;;
7539;SDS011;3811;49.006;12.076;2022-07-23T02:11:16;11.87;;;10.50;;
7539;SDS011;3811;49.006;12.076;2022-07-23T02:13:44;10.97;;;9.97;;
7539;SDS011;3811;49.006;12.076;2022-07-23T02:16:11;11.13;;;10.00;;
7539;SDS011;3811;49.006;12.076;2022-07-23T02:18:38;15.07;;;10.90;;
7539;SDS011;3811;49.006;12.076;2022-07-23T02:21:06;11.53;;;10.30;;
7539;SDS011;3811;49.006;12.076;2022-07-23T02:23:33;11.93;;;9.90;;
7539;SDS011;3811;49.006;12.076;2022-07-23T02:26:00;12.10;;;10.27;;
7539;SDS011;3811;49.006;12.076;2022-07-23T02:28:28;12.07;;;10.00;;
7539;SDS011;3811;49.006;12.076;2022-07-23T02:30:57;11.63;;;10.40;;
7539;SDS011;3811;49.006;12.076;2022-07-23T02:33:24;10.83;;;9.73;;
7539;SDS011;3811;49.006;12.076;2022-07-23T02:35:51;10.57;;;9.47;;
7539;SDS011;3811;49.006;12.076;2022-07-23T02:38:19;12.60;;;9.13;;
7539;SDS011;3811;49.006;12.076;2022-07-23T02:40:47;10.70;;;9.70;;
7539;SDS011;3811;49.006;12.076;2022-07-23T02:43:15;10.37;;;9.37;;
7539;SDS011;3811;49.006;12.076;2022-07-23T02:45:43;11.07;;;9.50;;
7539;SDS011;3811;49.006;12.076;2022-07-23T02:48:12;12.13;;;9.23;;
7539;SDS011;3811;49.006;12.076;2022-07-23T02:50:41;13.03;;;9.57;;
7539;SDS011;3811;49.006;12.076;2022-07-23T02:53:12;11.60;;;7.87;;
7539;SDS011;3811;49.006;12.076;2022-07-23T02:55:40;9.63;;;8.70;;
7539;SDS011;3811;49.006;12.076;2022-07-23T02:58:07;9.90;;;8.57;;
7539;SDS011;3811;49.006;12.076;2022-07-23T03:00:35;8.83;;;8.03;;
7539;SDS011;3811;49.006;12.076;2022-07-23T03:03:02;9.17;;;8.33;;
7539;SDS011;3811;49.006;12.076;2022-07-23T03:05:31;9.20;;;8.33;;
7539;SDS011;3811;49.006;12.076;2022-07-23T03:07:58;9.40;;;8.40;;
7539;SDS011;3811;49.006;12.076;2022-07-23T03:10:25;9.67;;;8.37;;
7539;SDS011;3811;49.006;12.076;2022-07-23T03:12:53;9.00;;;8.10;;
7539;SDS011;3811;49.006;12.076;2022-07-23T03:15:20;8.10;;;7.13;;
7539;SDS011;3811;49.006;12.076;2022-07-23T03:17:48;8.60;;;7.63;;
7539;SDS011;3811;49.006;12.076;2022-07-23T03:20:15;12.30;;;7.37;;
7539;SDS011;3811;49.006;12.076;2022-07-23T03:22:44;8.40;;;6.93;;
7539;SDS011;3811;49.006;12.076;2022-07-23T03:25:11;9.27;;;7.33;;
7539;SDS011;3811;49.006;12.076;2022-07-23T03:27:38;11.13;;;8.40;;
7539;SDS011;3811;49.006;12.076;2022-07-23T03:30:06;10.73;;;7.93;;
7539;SDS011;3811;49.006;12.076;2022-07-23T03:32:34;9.47;;;8.40;;
7539;SDS011;3811;49.006;12.076;2022-07-23T03:35:01;12.07;;;8.50;;
7539;SDS011;3811;49.006;12.076;2022-07-23T03:37:30;10.07;;;8.40;;
7539;SDS011;3811;49.006;12.076;2022-07-23T03:40:00;10.03;;;7.10;;
7539;SDS011;3811;49.006;12.076;2022-07-23T03:42:28;11.40;;;7.80;;
7539;SDS011;3811;49.006;12.076;2022-07-23T03:44:55;7.77;;;6.93;;
7539;SDS011;3811;49.006;12.076;2022-07-23T03:47:22;7.67;;;6.80;;
7539;SDS011;3811;49.006;12.076;2022-07-23T03:49:50;7.57;;;6.87;;
7539;SDS011;3811;49.006;12.076;2022-07-23T03:52:17;8.00;;;6.90;;
7539;SDS011;3811;49.006;12.076;2022-07-23T03:54:44;7.27;;;6.30;;
7539;SDS011;3811;49.006;12.076;2022-07-23T03:57:13;6.77;;;6.17;;
7539;SDS011;3811;49.006;12.076;2022-07-23T03:59:40;9.87;;;7.87;;
7539;SDS011;3811;49.006;12.076;2022-07-23T04:02:07;8.40;;;7.60;;
7539;SDS011;3811;49.006;12.076;2022-07-23T04:04:35;7.67;;;6.97;;
7539;SDS011;3811;49.006;12.076;2022-07-23T04:07:02;8.50;;;6.57;;
7539;SDS011;3811;49.006;12.076;2022-07-23T04:09:30;6.43;;;5.53;;
7539;SDS011;3811;49.006;12.076;2022-07-23T04:11:58;7.10;;;6.33;;
7539;SDS011;3811;49.006;12.076;2022-07-23T04:14:26;6.80;;;6.03;;
7539;SDS011;3811;49.006;12.076;2022-07-23T04:16:53;6.83;;;6.03;;
7539;SDS011;3811;49.006;12.076;2022-07-23T04:19:21;13.63;;;5.70;;
7539;SDS011;3811;49.006;12.076;2022-07-23T04:21:58;6.40;;;5.83;;
7539;SDS011;3811;49.006;12.076;2022-07-23T04:24:25;9.63;;;6.17;;
7539;SDS011;3811;49.006;12.076;2022-07-23T04:26:53;6.50;;;5.90;;
7539;SDS011;3811;49.006;12.076;2022-07-23T04:29:20;7.60;;;6.33;;
7539;SDS011;3811;49.006;12.076;2022-07-23T04:31:49;7.23;;;6.47;;
7539;SDS011;3811;49.006;12.076;2022-07-23T04:34:16;7.53;;;6.53;;
7539;SDS011;3811;49.006;12.076;2022-07-23T04:36:44;9.07;;;6.60;;
7539;SDS011;3811;49.006;12.076;2022-07-23T04:39:14;6.73;;;6.07;;
7539;SDS011;3811;49.006;12.076;2022-07-23T04:41:41;6.37;;;5.83;;
7539;SDS011;3811;49.006;12.076;2022-07-23T04:44:08;8.87;;;6.00;;
7539;SDS011;3811;49.006;12.076;2022-07-23T04:46:37;7.30;;;6.60;;
7539;SDS011;3811;49.006;12.076;2022-07-23T04:49:07;10.03;;;6.30;;
7539;SDS011;3811;49.006;12.076;2022-07-23T04:51:34;6.77;;;6.07;;
7539;SDS011;3811;49.006;12.076;2022-07-23T04:54:02;8.00;;;6.13;;
7539;SDS011;3811;49.006;12.076;2022-07-23T04:56:30;7.07;;;6.27;;
7539;SDS011;3811;49.006;12.076;2022-07-23T04:58:57;7.03;;;6.10;;
7539;SDS011;3811;49.006;12.076;2022-07-23T05:01:25;7.13;;;6.03;;
7539;SDS011;3811;49.006;12.076;2022-07-23T05:03:52;6.17;;;5.67;;
7539;SDS011;3811;49.006;12.076;2022-07-23T05:06:20;7.43;;;6.73;;
7539;SDS011;3811;49.006;12.076;2022-07-23T05:08:47;8.00;;;5.50;;
7539;SDS011;3811;49.006;12.076;2022-07-23T05:11:15;6.67;;;5.47;;
7539;SDS011;3811;49.006;12.076;2022-07-23T05:13:43;6.93;;;6.23;;
7539;SDS011;3811;49.006;12.076;2022-07-23T05:16:10;6.27;;;5.67;;
7539;SDS011;3811;49.006;12.076;2022-07-23T05:18:38;7.77;;;6.23;;
7539;SDS011;3811;49.006;12.076;2022-07-23T05:21:06;6.17;;;5.53;;
7539;SDS011;3811;49.006;12.076;2022-07-23T05:23:35;6.77;;;6.07;;
7539;SDS011;3811;49.006;12.076;2022-07-23T05:26:02;6.47;;;5.80;;
7539;SDS011;3811;49.006;12.076;2022-07-23T05:28:32;5.77;;;5.20;;
7539;SDS011;3811;49.006;12.076;2022-07-23T05:30:59;5.40;;;4.90;;
7539;SDS011;3811;49.006;12.076;2022-07-23T05:33:27;6.10;;;5.47;;
7539;SDS011;3811;49.006;12.076;2022-07-23T05:35:59;5.33;;;4.70;;
7539;SDS011;3811;49.006;12.076;2022-07-23T05:38:28;6.13;;;5.30;;
7539;SDS011;3811;49.006;12.076;2022-07-23T05:40:59;5.37;;;4.87;;
7539;SDS011;3811;49.006;12.076;2022-07-23T05:43:28;5.60;;;5.10;;
7539;SDS011;3811;49.006;12.076;2022-07-23T05:45:58;6.00;;;5.40;;
7539;SDS011;3811;49.006;12.076;2022-07-23T05:48:25;7.00;;;5.20;;
7539;SDS011;3811;49.006;12.076;2022-07-23T05:51:00;5.60;;;5.10;;
7539;SDS011;3811;49.006;12.076;2022-07-23T05:53:31;7.00;;;5.57;;
7539;SDS011;3811;49.006;12.076;2022-07-23T05:56:02;5.37;;;4.93;;
7539;SDS011;3811;49.006;12.076;2022-07-23T05:58:31;5.43;;;5.03;;
7539;SDS011;3811;49.006;12.076;2022-07-23T06:00:59;5.17;;;4.73;;
7539;SDS011;3811;49.006;12.076;2022-07-23T06:03:30;7.30;;;5.27;;
7539;SDS011;3811;49.006;12.076;2022-07-23T06:05:58;5.70;;;5.20;;
7539;SDS011;3811;49.006;12.076;2022-07-23T06:08:25;7.67;;;5.50;;
7539;SDS011;3811;49.006;12.076;2022-07-23T06:10:53;5.70;;;5.30;;
7539;SDS011;3811;49.006;12.076;2022-07-23T06:13:21;5.63;;;5.03;;
7539;SDS011;3811;49.006;12.076;2022-07-23T06:15:50;6.63;;;6.03;;
7539;SDS011;3811;49.006;12.076;2022-07-23T06:18:18;6.50;;;4.97;;
7539;SDS011;3811;49.006;12.076;2022-07-23T06:20:45;5.87;;;5.20;;
7539;SDS011;3811;49.006;12.076;2022-07-23T06:23:13;5.97;;;5.40;;
7539;SDS011;3811;49.006;12.076;2022-07-23T06:25:41;4.90;;;4.50;;
7539;SDS011;3811;49.006;12.076;2022-07-23T06:28:08;4.93;;;4.53;;
7539;SDS011;3811;49.006;12.076;2022-07-23T06:30:37;5.30;;;4.77;;
7539;SDS011;3811;49.006;12.076;2022-07-23T06:33:04;6.10;;;4.40;;
7539;SDS011;3811;49.006;12.076;2022-07-23T06:35:32;4.67;;;4.27;;
7539;SDS011;3811;49.006;12.076;2022-07-23T06:37:59;4.93;;;4.37;;
7539;SDS011;3811;49.006;12.076;2022-07-23T06:40:27;5.00;;;4.50;;
7539;SDS011;3811;49.006;12.076;2022-07-23T06:42:54;6.07;;;4.30;;
7539;SDS011;3811;49.006;12.076;2022-07-23T06:45:22;5.77;;;4.63;;
7539;SDS011;3811;49.006;12.076;2022-07-23T06:47:50;4.17;;;3.80;;
7539;SDS011;3811;49.006;12.076;2022-07-23T06:50:18;4.17;;;3.87;;
7539;SDS011;3811;49.006;12.076;2022-07-23T06:52:47;4.77;;;4.27;;
7539;SDS011;3811;49.006;12.076;2022-07-23T06:55:15;4.60;;;4.20;;
7539;SDS011;3811;49.006;12.076;2022-07-23T06:57:44;4.53;;;4.13;;
7539;SDS011;3811;49.006;12.076;2022-07-23T07:00:14;4.57;;;4.20;;
7539;SDS011;3811;49.006;12.076;2022-07-23T07:02:41;4.33;;;4.03;;
7539;SDS011;3811;49.006;12.076;2022-07-23T07:05:10;4.37;;;3.97;;
7539;SDS011;3811;49.006;12.076;2022-07-23T07:07:37;4.70;;;4.30;;
7539;SDS011;3811;49.006;12.076;2022-07-23T07:10:05;5.07;;;4.53;;
7539;SDS011;3811;49.006;12.076;2022-07-23T07:12:32;5.13;;;4.07;;
7539;SDS011;3811;49.006;12.076;2022-07-23T07:15:00;4.40;;;4.10;;
7539;SDS011;3811;49.006;12.076;2022-07-23T07:17:27;6.30;;;4.40;;
7539;SDS011;3811;49.006;12.076;2022-07-23T07:20:00;4.47;;;4.03;;
7539;SDS011;3811;49.006;12.076;2022-07-23T07:22:28;4.10;;;3.83;;
7539;SDS011;3811;49.006;12.076;2022-07-23T07:24:55;4.77;;;4.30;;
7539;SDS011;3811;49.006;12.076;2022-07-23T07:27:23;4.40;;;4.07;;
7539;SDS011;3811;49.006;12.076;2022-07-23T07:29:50;5.77;;;4.30;;
7539;SDS011;3811;49.006;12.076;2022-07-23T07:32:18;4.63;;;4.03;;
7539;SDS011;3811;49.006;12.076;2022-07-23T07:34:45;4.33;;;4.03;;
7539;SDS011;3811;49.006;12.076;2022-07-23T07:37:13;4.10;;;3.80;;
7539;SDS011;3811;49.006;12.076;2022-07-23T07:39:41;4.40;;;4.10;;
7539;SDS011;3811;49.006;12.076;2022-07-23T07:42:09;4.17;;;3.87;;
7539;SDS011;3811;49.006;12.076;2022-07-23T07:44:36;3.97;;;3.60;;
7539;SDS011;3811;49.006;12.076;2022-07-23T07:47:03;4.27;;;3.87;;
7539;SDS011;3811;49.006;12.076;2022-07-23T07:49:30;8.33;;;3.90;;
7539;SDS011;3811;49.006;12.076;2022-07-23T07:51:58;4.13;;;3.83;;
7539;SDS011;3811;49.006;12.076;2022-07-23T07:54:25;4.60;;;4.20;;
7539;SDS011;3811;49.006;12.076;2022-07-23T07:56:54;4.63;;;4.23;;
7539;SDS011;3811;49.006;12.076;2022-07-23T07:59:21;4.30;;;3.67;;
7539;SDS011;3811;49.006;12.076;2022-07-23T08:01:49;4.07;;;3.77;;
7539;SDS011;3811;49.006;12.076;2022-07-23T08:04:16;4.50;;;4.20;;
7539;SDS011;3811;49.006;12.076;2022-07-23T08:06:43;4.67;;;4.27;;
7539;SDS011;3811;49.006;12.076;2022-07-23T08:09:10;5.70;;;4.10;;
7539;SDS011;3811;49.006;12.076;2022-07-23T08:11:40;5.90;;;4.10;;
7539;SDS011;3811;49.006;12.076;2022-07-23T08:14:08;4.37;;;3.97;;
7539;SDS011;3811;49.006;12.076;2022-07-23T08:16:36;4.60;;;4.20;;
7539;SDS011;3811;49.006;12.076;2022-07-23T08:19:03;4.20;;;3.90;;
7539;SDS011;3811;49.006;12.076;2022-07-23T08:21:30;7.10;;;4.03;;
7539;SDS011;3811;49.006;12.076;2022-07-23T08:23:57;4.83;;;4.17;;
7539;SDS011;3811;49.006;12.076;2022-07-23T08:26:24;4.13;;;3.83;;
7539;SDS011;3811;49.006;12.076;2022-07-23T08:28:51;4.27;;;3.87;;
7539;SDS011;3811;49.006;12.076;2022-07-23T08:31:20;3.60;;;3.30;;
7539;SDS011;3811;49.006;12.076;2022-07-23T08:33:47;3.80;;;3.50;;
7539;SDS011;3811;49.006;12.076;2022-07-23T08:36:14;4.13;;;3.83;;
7539;SDS011;3811;49.006;12.076;2022-07-23T08:38:42;3.73;;;3.40;;
7539;SDS011;3811;49.006;12.076;2022-07-23T08:41:09;4.10;;;3.80;;
7539;SDS011;3811;49.006;12.076;2022-07-23T08:43:36;4.10;;;3.80;;
7539;SDS011;3811;49.006;12.076;2022-07-23T08:46:05;4.47;;;4.07;;
7539;SDS011;3811;49.006;12.076;2022-07-23T08:48:34;4.47;;;4.17;;
7539;SDS011;3811;49.006;12.076;2022-07-23T08:51:02;4.40;;;4.00;;
7539;SDS011;3811;49.006;12.076;2022-07-23T08:53:32;4.17;;;3.87;;
7539;SDS011;3811;49.006;12.076;2022-07-23T08:56:01;4.60;;;4.20;;
7539;SDS011;3811;49.006;12.076;2022-07-23T08:58:29;4.50;;;4.10;;
7539;SDS011;3811;49.006;12.076;2022-07-23T09:00:57;5.03;;;4.50;;
7539;SDS011;3811;49.006;12.076;2022-07-23T09:03:24;4.43;;;4.00;;
7539;SDS011;3811;49.006;12.076;2022-07-23T09:05:54;4.80;;;4.40;;
7539;SDS011;3811;49.006;12.076;2022-07-23T09:08:22;4.60;;;4.20;;
7539;SDS011;3811;49.006;12.076;2022-07-23T09:10:51;4.70;;;4.27;;
7539;SDS011;3811;49.006;12.076;2022-07-23T09:13:23;4.40;;;4.10;;
7539;SDS011;3811;49.006;12.076;2022-07-23T09:15:57;4.63;;;4.17;;
7539;SDS011;3811;49.006;12.076;2022-07-23T09:18:32;5.00;;;4.50;;
7539;SDS011;3811;49.006;12.076;2022-07-23T09:21:14;5.20;;;4.80;;
7539;SDS011;3811;49.006;12.076;2022-07-23T09:23:48;4.70;;;4.30;;
7539;SDS011;3811;49.006;12.076;2022-07-23T09:26:30;4.70;;;4.23;;
7539;SDS011;3811;49.006;12.076;2022-07-23T09:29:00;5.50;;;5.10;;
7539;SDS011;3811;49.006;12.076;2022-07-23T09:31:31;5.37;;;4.87;;
7539;SDS011;3811;49.006;12.076;2022-07-23T09:34:06;5.50;;;5.10;;
7539;SDS011;3811;49.006;12.076;2022-07-23T09:36:36;4.77;;;4.37;;
7539;SDS011;3811;49.006;12.076;2022-07-23T09:39:10;5.40;;;5.00;;
7539;SDS011;3811;49.006;12.076;2022-07-23T09:41:39;5.20;;;4.73;;
7539;SDS011;3811;49.006;12.076;2022-07-23T09:44:09;5.97;;;5.43;;
7539;SDS011;3811;49.006;12.076;2022-07-23T09:46:38;6.10;;;5.50;;
7539;SDS011;3811;49.006;12.076;2022-07-23T09:49:10;5.80;;;5.30;;
7539;SDS011;3811;49.006;12.076;2022-07-23T09:51:45;5.90;;;5.40;;
7539;SDS011;3811;49.006;12.076;2022-07-23T09:54:20;5.77;;;5.20;;
7539;SDS011;3811;49.006;12.076;2022-07-23T09:56:53;6.40;;;5.90;;
7539;SDS011;3811;49.006;12.076;2022-07-23T09:59:22;6.00;;;5.50;;
7539;SDS011;3811;49.006;12.076;2022-07-23T10:01:51;6.33;;;5.73;;
7539;SDS011;3811;49.006;12.076;2022-07-23T10:04:21;6.73;;;6.13;;
7539;SDS011;3811;49.006;12.076;2022-07-23T10:07:10;6.63;;;6.10;;
7539;SDS011;3811;49.006;12.076;2022-07-23T10:09:59;6.63;;;6.03;;
7539;SDS011;3811;49.006;12.076;2022-07-23T10:12:47;6.27;;;5.73;;
7539;SDS011;3811;49.006;12.076;2022-07-23T10:15:29;8.27;;;5.60;;
7539;SDS011;3811;49.006;12.076;2022-07-23T10:17:56;6.77;;;6.20;;
7539;SDS011;3811;49.006;12.076;2022-07-23T10:20:24;6.83;;;6.23;;
7539;SDS011;3811;49.006;12.076;2022-07-23T10:22:54;7.37;;;6.53;;
7539;SDS011;3811;49.006;12.076;2022-07-23T10:25:32;7.57;;;6.87;;
7539;SDS011;3811;49.006;12.076;2022-07-23T10:28:10;6.80;;;6.30;;
7539;SDS011;3811;49.006;12.076;2022-07-23T10:31:00;7.00;;;6.40;;
7539;SDS011;3811;49.006;12.076;2022-07-23T10:33:32;7.10;;;6.50;;
7539;SDS011;3811;49.006;12.076;2022-07-23T10:36:11;6.77;;;6.17;;
7539;SDS011;3811;49.006;12.076;2022-07-23T10:38:51;7.03;;;6.40;;
7539;SDS011;3811;49.006;12.076;2022-07-23T10:41:32;6.53;;;5.83;;
7539;SDS011;3811;49.006;12.076;2022-07-23T10:44:09;7.23;;;6.53;;
7539;SDS011;3811;49.006;12.076;2022-07-23T10:49:35;6.60;;;6.10;;
7539;SDS011;3811;49.006;12.076;2022-07-23T10:52:15;6.80;;;6.13;;
7539;SDS011;3811;49.006;12.076;2022-07-23T10:54:48;6.93;;;6.30;;
7539;SDS011;3811;49.006;12.076;2022-07-23T10:57:17;6.40;;;5.80;;
7539;SDS011;3811;49.006;12.076;2022-07-23T11:02:51;6.87;;;5.87;;
7539;SDS011;3811;49.006;12.076;2022-07-23T11:05:20;6.67;;;6.07;;
7539;SDS011;3811;49.006;12.076;2022-07-23T11:10:42;6.82;;;6.25;;
7539;SDS011;3811;49.006;12.076;2022-07-23T11:13:30;6.72;;;5.95;;
7539;SDS011;3811;49.006;12.076;2022-07-23T11:16:08;6.30;;;5.80;;
7539;SDS011;3811;49.006;12.076;2022-07-23T11:18:52;6.78;;;6.03;;
7539;SDS011;3811;49.006;12.076;2022-07-23T11:21:40;7.25;;;6.15;;
7539;SDS011;3811;49.006;12.076;2022-07-23T11:24:16;7.82;;;6.70;;
7539;SDS011;3811;49.006;12.076;2022-07-23T11:26:46;6.80;;;6.10;;
7539;SDS011;3811;49.006;12.076;2022-07-23T11:35:21;18.77;;;8.83;;
7539;SDS011;3811;49.006;12.076;2022-07-23T11:37:49;17.03;;;8.87;;
7539;SDS011;3811;49.006;12.076;2022-07-23T11:40:19;14.13;;;9.40;;
7539;SDS011;3811;49.006;12.076;2022-07-23T11:42:58;13.03;;;9.27;;
7539;SDS011;3811;49.006;12.076;2022-07-23T11:45:29;12.17;;;8.20;;
7539;SDS011;3811;49.006;12.076;2022-07-23T11:47:58;9.30;;;8.43;;
7539;SDS011;3811;49.006;12.076;2022-07-23T11:50:25;10.53;;;9.37;;
7539;SDS011;3811;49.006;12.076;2022-07-23T11:52:53;11.50;;;8.60;;
7539;SDS011;3811;49.006;12.076;2022-07-23T11:55:20;12.10;;;9.27;;
7539;SDS011;3811;49.006;12.076;2022-07-23T11:57:50;11.30;;;9.53;;
7539;SDS011;3811;49.006;12.076;2022-07-23T12:00:21;10.40;;;9.40;;
7539;SDS011;3811;49.006;12.076;2022-07-23T12:02:50;11.77;;;9.83;;
7539;SDS011;3811;49.006;12.076;2022-07-23T12:05:19;10.87;;;9.50;;
7539;SDS011;3811;49.006;12.076;2022-07-23T12:07:48;9.50;;;8.50;;
7539;SDS011;3811;49.006;12.076;2022-07-23T12:10:16;8.80;;;7.87;;
7539;SDS011;3811;49.006;12.076;2022-07-23T12:12:45;8.53;;;7.67;;
7539;SDS011;3811;49.006;12.076;2022-07-23T12:15:14;8.80;;;7.90;;
7539;SDS011;3811;49.006;12.076;2022-07-23T12:17:45;8.47;;;7.77;;
7539;SDS011;3811;49.006;12.076;2022-07-23T12:20:13;8.43;;;7.53;;
7539;SDS011;3811;49.006;12.076;2022-07-23T12:22:42;9.47;;;8.63;;
7539;SDS011;3811;49.006;12.076;2022-07-23T12:25:10;9.07;;;8.17;;
7539;SDS011;3811;49.006;12.076;2022-07-23T12:27:38;9.63;;;8.63;;
7539;SDS011;3811;49.006;12.076;2022-07-23T12:30:19;8.90;;;8.00;;
7539;SDS011;3811;49.006;12.076;2022-07-23T12:32:50;9.00;;;8.20;;
7539;SDS011;3811;49.006;12.076;2022-07-23T12:35:19;9.33;;;8.53;;
7539;SDS011;3811;49.006;12.076;2022-07-23T12:37:48;9.80;;;8.90;;
7539;SDS011;3811;49.006;12.076;2022-07-23T12:43:08;9.57;;;8.67;;
7539;SDS011;3811;49.006;12.076;2022-07-23T12:45:46;8.63;;;7.87;;
7539;SDS011;3811;49.006;12.076;2022-07-23T12:48:19;9.40;;;8.50;;
7539;SDS011;3811;49.006;12.076;2022-07-23T12:50:50;8.67;;;7.97;;
7539;SDS011;3811;49.006;12.076;2022-07-23T12:53:19;9.03;;;8.20;;
7539;SDS011;3811;49.006;12.076;2022-07-23T12:55:47;8.23;;;7.47;;
7539;SDS011;3811;49.006;12.076;2022-07-23T12:58:16;9.20;;;8.40;;
7539;SDS011;3811;49.006;12.076;2022-07-23T13:00:55;9.50;;;8.13;;
7539;SDS011;3811;49.006;12.076;2022-07-23T13:03:28;7.43;;;6.73;;
7539;SDS011;3811;49.006;12.076;2022-07-23T13:06:01;7.90;;;7.10;;
7539;SDS011;3811;49.006;12.076;2022-07-23T13:08:30;7.97;;;7.27;;
7539;SDS011;3811;49.006;12.076;2022-07-23T13:10:58;7.77;;;7.07;;
7539;SDS011;3811;49.006;12.076;2022-07-23T13:13:26;9.73;;;8.77;;
7539;SDS011;3811;49.006;12.076;2022-07-23T13:15:56;9.90;;;8.27;;
7539;SDS011;3811;49.006;12.076;2022-07-23T13:18:24;8.50;;;7.63;;
7539;SDS011;3811;49.006;12.076;2022-07-23T13:20:53;8.37;;;7.73;;
7539;SDS011;3811;49.006;12.076;2022-07-23T13:23:21;8.20;;;7.50;;
7539;SDS011;3811;49.006;12.076;2022-07-23T13:25:48;7.80;;;7.20;;
7539;SDS011;3811;49.006;12.076;2022-07-23T13:28:16;8.30;;;7.60;;
7539;SDS011;3811;49.006;12.076;2022-07-23T13:30:44;8.63;;;7.83;;
7539;SDS011;3811;49.006;12.076;2022-07-23T13:33:13;7.37;;;6.77;;
7539;SDS011;3811;49.006;12.076;2022-07-23T13:35:40;7.93;;;7.13;;
7539;SDS011;3811;49.006;12.076;2022-07-23T13:38:09;8.23;;;7.40;;
7539;SDS011;3811;49.006;12.076;2022-07-23T13:40:36;7.10;;;6.50;;
7539;SDS011;3811;49.006;12.076;2022-07-23T13:43:05;7.37;;;6.77;;
7539;SDS011;3811;49.006;12.076;2022-07-23T13:45:33;6.97;;;6.37;;
7539;SDS011;3811;49.006;12.076;2022-07-23T13:48:00;6.60;;;6.10;;
7539;SDS011;3811;49.006;12.076;2022-07-23T13:50:28;7.03;;;6.43;;
7539;SDS011;3811;49.006;12.076;2022-07-23T13:52:55;6.00;;;5.40;;
7539;SDS011;3811;49.006;12.076;2022-07-23T13:55:23;6.63;;;6.03;;
7539;SDS011;3811;49.006;12.076;2022-07-23T13:57:51;6.87;;;6.17;;
7539;SDS011;3811;49.006;12.076;2022-07-23T14:00:18;6.00;;;5.50;;
7539;SDS011;3811;49.006;12.076;2022-07-23T14:02:45;6.63;;;6.13;;
7539;SDS011;3811;49.006;12.076;2022-07-23T14:05:12;7.10;;;6.43;;
7539;SDS011;3811;49.006;12.076;2022-07-23T14:07:40;6.40;;;5.87;;
7539;SDS011;3811;49.006;12.076;2022-07-23T14:10:09;6.63;;;6.03;;
7539;SDS011;3811;49.006;12.076;2022-07-23T14:12:38;7.00;;;6.50;;
7539;SDS011;3811;49.006;12.076;2022-07-23T14:15:05;7.73;;;6.67;;
7539;SDS011;3811;49.006;12.076;2022-07-23T14:17:35;6.37;;;5.87;;
7539;SDS011;3811;49.006;12.076;2022-07-23T14:20:02;6.53;;;6.00;;
7539;SDS011;3811;49.006;12.076;2022-07-23T14:22:30;6.20;;;5.60;;
7539;SDS011;3811;49.006;12.076;2022-07-23T14:24:57;6.43;;;5.93;;
7539;SDS011;3811;49.006;12.076;2022-07-23T14:27:25;6.73;;;6.13;;
7539;SDS011;3811;49.006;12.076;2022-07-23T14:29:55;6.23;;;5.73;;
7539;SDS011;3811;49.006;12.076;2022-07-23T14:32:25;6.67;;;5.13;;
7539;SDS011;3811;49.006;12.076;2022-07-23T14:34:52;5.50;;;5.00;;
7539;SDS011;3811;49.006;12.076;2022-07-23T14:37:19;5.53;;;5.13;;
7539;SDS011;3811;49.006;12.076;2022-07-23T14:39:47;5.10;;;4.70;;
7539;SDS011;3811;49.006;12.076;2022-07-23T14:42:14;5.40;;;5.00;;
7539;SDS011;3811;49.006;12.076;2022-07-23T14:44:41;5.57;;;4.95;;
7539;SDS011;3811;49.006;12.076;2022-07-23T14:47:15;4.82;;;4.45;;
7539;SDS011;3811;49.006;12.076;2022-07-23T14:49:42;4.30;;;4.00;;
7539;SDS011;3811;49.006;12.076;2022-07-23T14:52:09;6.30;;;4.90;;
7539;SDS011;3811;49.006;12.076;2022-07-23T14:54:37;5.20;;;4.80;;
7539;SDS011;3811;49.006;12.076;2022-07-23T14:57:04;7.85;;;4.93;;
7539;SDS011;3811;49.006;12.076;2022-07-23T14:59:32;5.38;;;4.97;;
7539;SDS011;3811;49.006;12.076;2022-07-23T15:02:00;5.63;;;4.93;;
7539;SDS011;3811;49.006;12.076;2022-07-23T15:04:28;4.90;;;4.57;;
7539;SDS011;3811;49.006;12.076;2022-07-23T15:06:55;5.38;;;4.95;;
7539;SDS011;3811;49.006;12.076;2022-07-23T15:09:22;6.05;;;5.38;;
7539;SDS011;3811;49.006;12.076;2022-07-23T15:11:49;6.15;;;5.05;;
7539;SDS011;3811;49.006;12.076;2022-07-23T15:14:17;5.27;;;4.87;;
7539;SDS011;3811;49.006;12.076;2022-07-23T15:16:44;5.10;;;4.70;;
7539;SDS011;3811;49.006;12.076;2022-07-23T15:19:11;5.20;;;4.80;;
7539;SDS011;3811;49.006;12.076;2022-07-23T15:21:40;6.27;;;5.53;;
7539;SDS011;3811;49.006;12.076;2022-07-23T15:24:07;10.00;;;5.60;;